createdAt,value
2018-01-26T00:00:23.929Z,10.73
2018-01-26T00:02:53.049Z,12.93
2018-01-26T00:05:22.145Z,12.90
2018-01-26T00:07:51.294Z,10.23
2018-01-26T00:10:20.417Z,12.37
2018-01-26T00:12:50.301Z,10.90
2018-01-26T00:15:19.402Z,9.30
2018-01-26T00:17:48.553Z,8.43
2018-01-26T00:20:18.457Z,7.73
2018-01-26T00:22:47.533Z,7.30
2018-01-26T00:25:16.649Z,8.50
2018-01-26T00:27:45.789Z,8.10
2018-01-26T00:30:15.687Z,8.90
2018-01-26T00:32:44.775Z,7.20
2018-01-26T00:35:13.886Z,7.70
2018-01-26T00:37:43.006Z,8.60
2018-01-26T00:40:12.131Z,8.70
2018-01-26T00:42:41.220Z,8.63
2018-01-26T00:45:10.340Z,10.00
2018-01-26T00:47:39.458Z,9.63
2018-01-26T00:50:08.579Z,8.17
2018-01-26T00:52:37.668Z,9.57
2018-01-26T00:55:06.781Z,9.47
2018-01-26T00:57:35.890Z,9.33
2018-01-26T01:00:05.758Z,10.53
2018-01-26T01:02:35.637Z,12.47
2018-01-26T01:05:04.759Z,11.23
2018-01-26T01:07:33.886Z,12.53
2018-01-26T01:10:03.005Z,12.27
2018-01-26T01:12:32.113Z,13.30
2018-01-26T01:15:01.977Z,12.30
2018-01-26T01:17:31.098Z,13.90
2018-01-26T01:20:00.221Z,13.67
2018-01-26T01:22:29.324Z,13.07
2018-01-26T01:24:58.461Z,11.80
2018-01-26T01:27:27.586Z,12.70
2018-01-26T01:29:57.474Z,11.80
2018-01-26T01:32:26.570Z,11.43
2018-01-26T01:34:55.722Z,11.13
2018-01-26T01:37:24.809Z,12.17
2018-01-26T01:39:53.939Z,10.07
2018-01-26T01:42:23.029Z,11.57
2018-01-26T01:44:52.184Z,10.77
2018-01-26T01:47:21.263Z,10.87
2018-01-26T01:49:51.213Z,10.97
2018-01-26T01:52:21.073Z,11.13
2018-01-26T01:54:50.201Z,11.33
2018-01-26T01:57:19.308Z,11.60
2018-01-26T01:59:49.171Z,11.90
2018-01-26T02:02:19.054Z,12.20
2018-01-26T02:04:48.168Z,11.80
2018-01-26T02:07:17.273Z,13.23
2018-01-26T02:09:46.386Z,12.67
2018-01-26T02:12:15.526Z,11.33
2018-01-26T02:14:44.635Z,13.23
2018-01-26T02:17:13.756Z,12.70
2018-01-26T02:19:42.912Z,12.00
2018-01-26T02:22:11.998Z,15.57
2018-01-26T02:24:41.133Z,17.93
2018-01-26T02:27:10.999Z,20.60
2018-01-26T02:29:40.117Z,10.97
2018-01-26T02:32:09.993Z,11.70
2018-01-26T02:34:39.098Z,11.10
2018-01-26T02:37:08.245Z,11.93
2018-01-26T02:39:37.371Z,13.00
2018-01-26T02:42:06.460Z,15.70
2018-01-26T02:44:37.096Z,13.33
2018-01-26T02:47:06.940Z,15.30
2018-01-26T02:49:36.043Z,15.10
2018-01-26T02:52:05.185Z,14.37
2018-01-26T02:54:35.054Z,14.63
2018-01-26T02:57:04.168Z,14.53
2018-01-26T02:59:33.300Z,14.17
2018-01-26T03:02:02.397Z,14.10
2018-01-26T03:04:31.525Z,13.43
2018-01-26T03:07:00.637Z,14.50
2018-01-26T03:09:30.498Z,14.17
2018-01-26T03:11:59.622Z,14.10
2018-01-26T03:14:29.497Z,15.10
2018-01-26T03:16:59.396Z,14.13
2018-01-26T03:19:28.518Z,14.00
2018-01-26T03:21:57.653Z,15.47
2018-01-26T03:24:27.521Z,15.57
2018-01-26T03:26:57.394Z,12.63
2018-01-26T03:29:27.300Z,16.10
2018-01-26T03:31:56.402Z,15.30
2018-01-26T03:34:25.518Z,14.70
2018-01-26T03:36:54.629Z,17.30
2018-01-26T03:39:23.758Z,15.73
2018-01-26T03:41:53.669Z,14.10
2018-01-26T03:44:22.777Z,15.10
2018-01-26T03:46:51.878Z,15.40
2018-01-26T03:49:21.010Z,16.20
2018-01-26T03:51:50.093Z,16.17
2018-01-26T03:54:19.219Z,16.37
2018-01-26T03:56:48.318Z,16.70
2018-01-26T03:59:17.473Z,16.27
2018-01-26T04:01:47.390Z,18.13
2018-01-26T04:04:16.514Z,16.37
2018-01-26T04:06:45.643Z,15.37
2018-01-26T04:09:14.730Z,12.40
2018-01-26T04:11:43.836Z,11.50
2018-01-26T04:14:12.962Z,11.70
2018-01-26T04:16:42.085Z,11.60
2018-01-26T04:19:11.186Z,11.37
2018-01-26T04:21:41.102Z,9.23
2018-01-26T04:24:10.189Z,8.90
2018-01-26T04:26:39.318Z,8.73
2018-01-26T04:29:08.407Z,9.43
2018-01-26T04:31:37.520Z,8.40
2018-01-26T04:34:06.622Z,6.80
2018-01-26T04:36:36.491Z,7.80
2018-01-26T04:39:05.607Z,6.90
2018-01-26T04:41:34.682Z,6.73
2018-01-26T04:44:03.849Z,8.67
2018-01-26T04:46:33.014Z,7.60
2018-01-26T04:49:02.102Z,7.00
2018-01-26T04:51:31.200Z,7.30
2018-01-26T04:54:01.105Z,6.47
2018-01-26T04:56:30.991Z,6.80
2018-01-26T04:59:00.081Z,5.90
2018-01-26T05:01:29.200Z,4.40
2018-01-26T05:03:58.284Z,4.20
2018-01-26T05:06:27.378Z,4.10
2018-01-26T05:08:57.257Z,4.40
2018-01-26T05:11:26.393Z,3.70
2018-01-26T05:13:55.465Z,4.43
2018-01-26T05:16:24.550Z,3.40
2018-01-26T05:18:53.675Z,3.80
2018-01-26T05:21:22.749Z,3.27
2018-01-26T05:23:52.612Z,4.07
2018-01-26T05:26:21.730Z,3.13
2018-01-26T05:28:50.837Z,3.90
2018-01-26T05:31:19.925Z,3.80
2018-01-26T05:33:49.886Z,3.40
2018-01-26T05:36:19.029Z,3.70
2018-01-26T05:38:48.141Z,3.50
2018-01-26T05:41:17.226Z,4.43
2018-01-26T05:43:46.386Z,3.00
2018-01-26T05:46:15.487Z,3.60
2018-01-26T05:48:44.606Z,3.80
2018-01-26T05:51:13.702Z,2.73
2018-01-26T05:53:42.812Z,2.97
2018-01-26T05:56:11.906Z,3.33
2018-01-26T05:58:41.792Z,2.87
2018-01-26T06:01:11.678Z,3.40
2018-01-26T06:03:40.783Z,3.70
2018-01-26T06:06:09.917Z,2.57
2018-01-26T06:08:39.023Z,3.60
2018-01-26T06:11:08.174Z,3.60
2018-01-26T06:13:37.280Z,3.90
2018-01-26T06:16:06.397Z,4.50
2018-01-26T06:18:35.481Z,4.27
2018-01-26T06:21:04.594Z,5.87
2018-01-26T06:23:33.681Z,5.87
2018-01-26T06:26:02.828Z,5.37
2018-01-26T06:28:31.916Z,5.03
2018-01-26T06:31:01.004Z,5.10
2018-01-26T06:33:30.110Z,4.60
2018-01-26T06:35:59.993Z,4.07
2018-01-26T06:38:29.862Z,3.27
2018-01-26T06:40:58.954Z,2.70
2018-01-26T06:43:28.067Z,2.40
2018-01-26T06:45:57.183Z,2.43
2018-01-26T06:48:27.041Z,2.50
2018-01-26T06:50:56.125Z,2.23
2018-01-26T06:53:25.257Z,3.00
2018-01-26T06:55:54.350Z,2.77
2018-01-26T06:58:24.244Z,3.47
2018-01-26T07:00:53.347Z,4.00
2018-01-26T07:03:23.242Z,4.17
2018-01-26T07:05:52.334Z,4.10
2018-01-26T07:08:21.485Z,3.60
2018-01-26T07:10:51.368Z,3.60
2018-01-26T07:13:20.480Z,3.97
2018-01-26T07:15:49.588Z,4.13
2018-01-26T07:18:19.436Z,3.60
2018-01-26T07:20:49.303Z,4.13
2018-01-26T07:23:18.404Z,3.90
2018-01-26T07:25:47.497Z,3.10
2018-01-26T07:28:17.352Z,3.33
2018-01-26T07:30:46.450Z,4.60
2018-01-26T07:33:15.538Z,5.33
2018-01-26T07:35:45.401Z,5.60
2018-01-26T07:38:14.509Z,4.50
2018-01-26T07:40:43.605Z,5.33
2018-01-26T07:43:12.701Z,9.67
2018-01-26T07:45:41.812Z,10.27
2018-01-26T07:48:11.664Z,5.00
2018-01-26T07:50:40.821Z,5.60
2018-01-26T07:53:10.688Z,8.83
2018-01-26T07:55:40.590Z,7.40
2018-01-26T07:58:10.437Z,8.20
2018-01-26T08:00:39.582Z,8.07
2018-01-26T08:03:08.696Z,7.10
2018-01-26T08:05:37.801Z,7.27
2018-01-26T08:08:06.912Z,6.17
2018-01-26T08:10:36.003Z,5.47
2018-01-26T08:13:05.118Z,4.83
2018-01-26T08:15:34.236Z,3.83
2018-01-26T08:18:03.338Z,4.00
2018-01-26T08:20:32.421Z,4.30
2018-01-26T08:23:01.558Z,3.87
2018-01-26T08:25:30.645Z,4.30
2018-01-26T08:27:59.749Z,4.10
2018-01-26T08:30:28.887Z,5.57
2018-01-26T08:32:57.993Z,3.90
2018-01-26T08:35:27.089Z,3.97
2018-01-26T08:37:56.185Z,3.23
2018-01-26T08:40:25.307Z,4.17
2018-01-26T08:42:54.392Z,4.20
2018-01-26T08:45:23.514Z,4.73
2018-01-26T08:47:52.599Z,3.80
2018-01-26T08:50:22.462Z,3.50
2018-01-26T08:52:51.545Z,3.83
2018-01-26T08:55:20.695Z,3.83
2018-01-26T08:57:49.783Z,3.63
2018-01-26T09:00:18.947Z,4.00
2018-01-26T09:02:48.045Z,3.70
2018-01-26T09:05:17.124Z,3.70
2018-01-26T09:07:46.231Z,3.90
2018-01-26T09:10:15.326Z,3.90
2018-01-26T09:12:44.434Z,4.40
2018-01-26T09:15:13.530Z,5.93
2018-01-26T09:17:42.629Z,5.30
2018-01-26T09:20:12.483Z,4.67
2018-01-26T09:22:41.610Z,5.63
2018-01-26T09:25:11.497Z,4.20
2018-01-26T09:27:41.374Z,6.90
2018-01-26T09:30:10.466Z,4.87
2018-01-26T09:32:39.583Z,4.20
2018-01-26T09:35:08.691Z,4.97
2018-01-26T09:37:37.784Z,6.80
2018-01-26T09:40:06.900Z,3.77
2018-01-26T09:42:36.065Z,6.10
2018-01-26T09:45:05.903Z,9.17
2018-01-26T09:47:35.018Z,5.00
2018-01-26T09:50:04.127Z,4.30
2018-01-26T09:52:33.234Z,4.77
2018-01-26T09:55:02.334Z,5.17
2018-01-26T09:57:31.438Z,5.20
2018-01-26T10:00:01.327Z,4.80
2018-01-26T10:02:30.418Z,6.80
2018-01-26T10:04:59.552Z,5.70
2018-01-26T10:07:28.636Z,4.70
2018-01-26T10:09:57.759Z,4.43
2018-01-26T10:12:26.847Z,4.50
2018-01-26T10:14:55.964Z,3.90
2018-01-26T10:17:25.036Z,5.17
2018-01-26T10:19:54.146Z,4.13
2018-01-26T10:22:23.247Z,4.40
2018-01-26T10:24:52.371Z,3.80
2018-01-26T10:27:21.481Z,4.23
2018-01-26T10:29:50.571Z,3.60
2018-01-26T10:32:19.706Z,4.57
2018-01-26T10:34:48.788Z,4.10
2018-01-26T10:37:17.914Z,5.17
2018-01-26T10:39:46.999Z,4.27
2018-01-26T10:42:16.110Z,3.97
2018-01-26T10:44:45.978Z,4.90
2018-01-26T10:47:15.088Z,5.67
2018-01-26T10:49:44.969Z,3.40
2018-01-26T10:52:14.842Z,5.17
2018-01-26T10:54:44.714Z,4.33
2018-01-26T10:57:14.577Z,4.07
2018-01-26T10:59:43.708Z,3.90
2018-01-26T11:02:12.800Z,3.93
2018-01-26T11:04:41.894Z,3.80
2018-01-26T11:07:10.989Z,3.70
2018-01-26T11:09:40.133Z,4.07
2018-01-26T11:12:09.241Z,3.70
2018-01-26T11:14:38.369Z,3.80
2018-01-26T11:17:07.470Z,4.43
2018-01-26T11:19:36.565Z,3.97
2018-01-26T11:22:05.950Z,4.37
2018-01-26T11:24:35.056Z,4.00
2018-01-26T11:27:04.173Z,4.23
2018-01-26T11:29:33.281Z,4.03
2018-01-26T11:32:02.409Z,4.70
2018-01-26T11:34:31.550Z,4.50
2018-01-26T11:37:00.671Z,4.10
2018-01-26T11:39:30.536Z,4.87
2018-01-26T11:41:59.646Z,4.80
2018-01-26T11:44:28.777Z,4.10
2018-01-26T11:46:57.902Z,4.00
2018-01-26T11:49:27.009Z,4.53
2018-01-26T11:51:56.122Z,4.03
2018-01-26T11:54:25.394Z,5.37
2018-01-26T11:56:54.497Z,4.73
2018-01-26T11:59:24.351Z,4.90
2018-01-26T12:01:53.450Z,3.70
2018-01-26T12:04:22.576Z,3.10
2018-01-26T12:06:51.646Z,3.80
2018-01-26T12:09:20.770Z,3.07
2018-01-26T12:11:49.880Z,3.50
2018-01-26T12:14:19.022Z,3.03
2018-01-26T12:16:48.094Z,3.50
2018-01-26T12:19:17.214Z,3.30
2018-01-26T12:21:46.305Z,3.43
2018-01-26T12:24:15.437Z,3.73
2018-01-26T12:26:44.546Z,3.80
2018-01-26T12:29:13.644Z,3.10
2018-01-26T12:31:42.729Z,3.70
2018-01-26T12:34:11.830Z,4.03
2018-01-26T12:36:40.949Z,3.47
2018-01-26T12:39:10.080Z,3.57
2018-01-26T12:41:39.189Z,3.60
2018-01-26T12:44:08.303Z,3.87
2018-01-26T12:46:37.382Z,3.53
2018-01-26T12:49:06.520Z,3.40
2018-01-26T12:51:35.612Z,3.60
2018-01-26T12:54:04.717Z,4.10
2018-01-26T12:56:33.830Z,4.00
2018-01-26T12:59:02.947Z,3.63
2018-01-26T13:01:32.060Z,4.00
2018-01-26T13:04:01.206Z,2.60
2018-01-26T13:06:30.354Z,2.93
2018-01-26T13:09:00.210Z,3.17
2018-01-26T13:11:29.316Z,2.77
2018-01-26T13:13:58.409Z,3.93
2018-01-26T13:16:27.525Z,4.07
2018-01-26T13:18:56.662Z,3.20
2018-01-26T13:21:25.790Z,3.27
2018-01-26T13:23:54.879Z,3.37
2018-01-26T13:26:24.061Z,3.67
2018-01-26T13:28:54.425Z,2.73
2018-01-26T13:31:23.522Z,3.40
2018-01-26T13:33:52.644Z,4.17
2018-01-26T13:36:21.740Z,4.30
2018-01-26T13:38:50.841Z,3.47
2018-01-26T13:41:19.949Z,2.80
2018-01-26T13:43:49.065Z,2.80
2018-01-26T13:46:18.162Z,2.00
2018-01-26T13:48:47.277Z,2.50
2018-01-26T13:51:16.375Z,2.20
2018-01-26T13:53:45.516Z,2.87
2018-01-26T13:56:15.476Z,2.90
2018-01-26T13:58:45.354Z,2.60
2018-01-26T14:01:14.434Z,2.40
2018-01-26T14:03:43.550Z,2.60
2018-01-26T14:06:12.658Z,2.17
2018-01-26T14:08:41.754Z,2.80
2018-01-26T14:11:10.876Z,2.37
2018-01-26T14:13:39.970Z,2.00
2018-01-26T14:16:09.116Z,2.87
2018-01-26T14:18:38.189Z,2.60
2018-01-26T14:21:07.316Z,2.77
2018-01-26T14:23:36.431Z,2.80
2018-01-26T14:26:05.536Z,2.77
2018-01-26T14:28:34.633Z,2.87
2018-01-26T14:31:03.758Z,2.60
2018-01-26T14:33:32.852Z,3.50
2018-01-26T14:36:01.954Z,3.00
2018-01-26T14:38:31.066Z,3.17
2018-01-26T14:41:00.189Z,2.80
2018-01-26T14:43:29.306Z,3.03
2018-01-26T14:45:58.429Z,3.20
2018-01-26T14:48:28.288Z,3.20
2018-01-26T14:50:58.203Z,3.47
2018-01-26T14:53:27.348Z,3.70
2018-01-26T14:55:57.593Z,3.90
2018-01-26T14:58:26.704Z,3.90
2018-01-26T15:00:55.833Z,3.70
2018-01-26T15:03:24.943Z,4.57
2018-01-26T15:05:54.029Z,3.67
2018-01-26T15:08:23.138Z,3.70
2018-01-26T15:10:52.268Z,4.20
2018-01-26T15:13:22.125Z,4.20
2018-01-26T15:15:51.272Z,3.53
2018-01-26T15:18:20.388Z,4.20
2018-01-26T15:20:49.535Z,3.90
2018-01-26T15:23:18.646Z,3.87
2018-01-26T15:25:47.753Z,4.30
2018-01-26T15:28:16.877Z,3.73
2018-01-26T15:30:45.992Z,4.57
2018-01-26T15:33:15.114Z,4.50
2018-01-26T15:35:44.978Z,4.30
2018-01-26T15:38:14.161Z,3.80
2018-01-26T15:40:44.018Z,3.73
2018-01-26T15:43:13.123Z,4.67
2018-01-26T15:45:42.264Z,3.83
2018-01-26T15:48:11.352Z,4.07
2018-01-26T15:50:40.478Z,4.50
2018-01-26T15:53:11.101Z,4.50
2018-01-26T15:55:40.395Z,4.20
2018-01-26T15:58:09.508Z,5.00
2018-01-26T16:00:38.654Z,5.10
2018-01-26T16:03:07.760Z,5.77
2018-01-26T16:05:36.850Z,5.63
2018-01-26T16:08:05.982Z,4.97
2018-01-26T16:10:35.122Z,4.97
2018-01-26T16:13:05.012Z,5.90
2018-01-26T16:15:34.110Z,5.63
2018-01-26T16:18:03.250Z,5.87
2018-01-26T16:20:32.342Z,6.90
2018-01-26T16:23:01.457Z,6.20
2018-01-26T16:25:30.579Z,7.40
2018-01-26T16:27:59.728Z,5.97
2018-01-26T16:30:28.841Z,6.50
2018-01-26T16:32:57.940Z,5.90
2018-01-26T16:35:27.039Z,6.60
2018-01-26T16:37:56.173Z,7.57
2018-01-26T16:40:25.387Z,6.60
2018-01-26T16:42:54.526Z,6.20
2018-01-26T16:45:23.656Z,5.93
2018-01-26T16:47:52.778Z,5.70
2018-01-26T16:50:22.640Z,6.93
2018-01-26T16:52:51.745Z,6.37
2018-01-26T16:55:20.897Z,6.37
2018-01-26T16:57:50.060Z,6.83
2018-01-26T17:00:19.188Z,7.10
2018-01-26T17:02:48.281Z,8.13
2018-01-26T17:05:18.194Z,7.70
2018-01-26T17:07:48.052Z,7.53
2018-01-26T17:10:17.141Z,8.60
2018-01-26T17:12:46.238Z,9.90
2018-01-26T17:15:15.336Z,8.57
2018-01-26T17:17:44.453Z,9.10
2018-01-26T17:20:13.589Z,10.10
2018-01-26T17:22:42.723Z,11.07
2018-01-26T17:25:11.829Z,9.10
2018-01-26T17:27:40.969Z,10.70
2018-01-26T17:30:10.827Z,10.27
2018-01-26T17:32:39.957Z,10.53
2018-01-26T17:35:09.062Z,10.73
2018-01-26T17:37:38.224Z,11.17
2018-01-26T17:40:07.346Z,10.33
2018-01-26T17:42:36.466Z,11.50
2018-01-26T17:45:05.550Z,12.07
2018-01-26T17:47:34.672Z,11.03
2018-01-26T17:50:03.814Z,11.67
2018-01-26T17:52:32.908Z,9.77
2018-01-26T17:55:02.041Z,11.20
2018-01-26T17:57:31.138Z,11.43
2018-01-26T18:00:00.291Z,10.67
2018-01-26T18:02:30.164Z,11.30
2018-01-26T18:04:59.298Z,11.83
2018-01-26T18:07:29.165Z,13.87
2018-01-26T18:09:59.026Z,11.60
2018-01-26T18:12:28.182Z,11.20
2018-01-26T18:14:57.318Z,10.70
2018-01-26T18:17:26.410Z,9.80
2018-01-26T18:19:56.294Z,11.70
2018-01-26T18:22:25.420Z,11.97
2018-01-26T18:24:54.520Z,13.57
2018-01-26T18:27:23.675Z,16.23
2018-01-26T18:29:53.555Z,16.87
2018-01-26T18:32:22.671Z,16.63
2018-01-26T18:34:51.798Z,16.27
2018-01-26T18:37:20.921Z,14.90
2018-01-26T18:39:50.774Z,15.33
2018-01-26T18:42:19.886Z,13.80
2018-01-26T18:44:49.015Z,15.53
2018-01-26T18:47:18.122Z,13.60
2018-01-26T18:49:47.448Z,13.23
2018-01-26T18:52:16.577Z,16.57
2018-01-26T18:54:45.712Z,15.80
2018-01-26T18:57:15.579Z,13.80
2018-01-26T18:59:44.716Z,12.97
2018-01-26T19:02:13.823Z,11.40
2018-01-26T19:04:42.983Z,13.63
2018-01-26T19:07:12.094Z,14.17
2018-01-26T19:09:41.212Z,13.40
2018-01-26T19:12:10.312Z,13.00
2018-01-26T19:14:39.459Z,12.80
2018-01-26T19:17:08.594Z,15.17
2018-01-26T19:19:37.685Z,12.80
2018-01-26T19:22:06.832Z,11.77
2018-01-26T19:24:35.964Z,12.90
2018-01-26T19:27:05.083Z,12.20
2018-01-26T19:29:34.197Z,12.43
2018-01-26T19:32:03.406Z,12.70
2018-01-26T19:34:32.525Z,12.90
2018-01-26T19:37:01.674Z,14.13
2018-01-26T19:39:31.710Z,14.23
2018-01-26T19:42:01.606Z,13.27
2018-01-26T19:44:31.470Z,13.93
2018-01-26T19:47:00.576Z,14.13
2018-01-26T19:49:30.483Z,13.60
2018-01-26T19:51:59.597Z,13.20
2018-01-26T19:54:29.499Z,12.40
2018-01-26T19:56:58.645Z,13.13
2018-01-26T19:59:28.521Z,13.23
2018-01-26T20:01:57.678Z,12.50
2018-01-26T20:04:32.258Z,11.97
2018-01-26T20:07:24.792Z,13.17
2018-01-26T20:09:53.924Z,12.60
2018-01-26T20:12:23.790Z,13.20
2018-01-26T20:14:52.954Z,13.13
2018-01-26T20:17:22.068Z,11.80
2018-01-26T20:19:51.199Z,11.70
2018-01-26T20:22:20.333Z,11.40
2018-01-26T20:24:49.475Z,12.57
2018-01-26T20:27:18.613Z,12.33
2018-01-26T20:29:47.706Z,13.03
2018-01-26T20:32:19.747Z,13.17
2018-01-26T20:34:49.652Z,13.30
2018-01-26T20:37:18.813Z,14.30
2018-01-26T20:39:48.107Z,14.27
2018-01-26T20:42:17.284Z,13.47
2018-01-26T20:44:46.417Z,14.80
2018-01-26T20:47:15.556Z,15.20
2018-01-26T20:49:44.666Z,16.20
2018-01-26T20:52:13.814Z,14.63
2018-01-26T20:54:42.942Z,14.70
2018-01-26T20:57:12.072Z,14.60
2018-01-26T20:59:41.976Z,15.43
2018-01-26T21:02:11.121Z,16.67
2018-01-26T21:04:40.257Z,16.50
2018-01-26T21:07:09.442Z,15.73
2018-01-26T21:09:38.711Z,17.50
2018-01-26T21:12:07.842Z,16.40
2018-01-26T21:14:37.757Z,16.53
2018-01-26T21:17:07.653Z,17.03
2018-01-26T21:19:36.791Z,17.47
2018-01-26T21:22:06.701Z,16.37
2018-01-26T21:24:35.854Z,16.60
2018-01-26T21:27:05.759Z,16.40
2018-01-26T21:29:34.860Z,17.67
2018-01-26T21:32:03.970Z,18.70
2018-01-26T21:34:33.117Z,17.47
2018-01-26T21:37:02.240Z,18.80
2018-01-26T21:39:32.120Z,18.37
2018-01-26T21:42:01.236Z,19.60
2018-01-26T21:44:31.119Z,21.47
2018-01-26T21:47:00.255Z,19.30
2018-01-26T21:49:29.379Z,23.53
2018-01-26T21:51:59.268Z,27.63
2018-01-26T21:54:28.398Z,28.00
2018-01-26T21:56:57.551Z,26.20
2018-01-26T21:59:26.652Z,25.87
2018-01-26T22:01:56.568Z,27.40
2018-01-26T22:17:48.499Z,26.67
2018-01-26T22:20:17.629Z,30.67
2018-01-26T22:22:46.763Z,32.70
2018-01-26T22:25:15.874Z,29.20
2018-01-26T22:27:44.984Z,27.20
2018-01-26T22:30:14.116Z,23.07
2018-01-26T22:32:43.981Z,21.27
2018-01-26T22:35:13.115Z,23.57
2018-01-26T22:37:42.246Z,24.00
2018-01-26T22:40:12.106Z,24.07
2018-01-26T22:42:41.231Z,26.17
2018-01-26T22:45:10.327Z,23.23
2018-01-26T22:47:39.445Z,25.37
2018-01-26T22:50:08.550Z,26.00
2018-01-26T22:52:37.705Z,28.60
2018-01-26T22:55:08.307Z,27.97
2018-01-26T22:57:37.432Z,28.47
2018-01-26T23:00:06.550Z,30.17
2018-01-26T23:02:35.695Z,27.07
2018-01-26T23:05:05.569Z,28.00
2018-01-26T23:07:34.663Z,26.70
2018-01-26T23:10:03.799Z,26.13
2018-01-26T23:12:32.888Z,27.00
2018-01-26T23:15:01.998Z,22.30
2018-01-26T23:17:31.894Z,24.70
2018-01-26T23:20:01.748Z,22.30
2018-01-26T23:22:30.837Z,22.83
2018-01-26T23:24:59.953Z,18.23
2018-01-26T23:27:29.054Z,16.70
2018-01-26T23:29:58.186Z,18.67
2018-01-26T23:32:27.293Z,19.30
2018-01-26T23:34:56.433Z,16.90
2018-01-26T23:37:25.549Z,17.30
2018-01-26T23:39:54.657Z,19.77
2018-01-26T23:42:23.746Z,18.63
2018-01-26T23:44:52.886Z,17.33
2018-01-26T23:47:21.996Z,17.37
2018-01-26T23:49:52.582Z,12.20
2018-01-26T23:52:21.698Z,14.33
2018-01-26T23:54:50.801Z,12.90
2018-01-26T23:57:19.910Z,14.87
2018-01-26T23:59:49.026Z,17.50
